Time;durP1;ratioP1;P1;durP2;ratioP2;P2;SDS_P1;SDS_P2;PMS_P1;PMS_P2;Temp;Humidity;BMP_temperature;BMP_pressure;BME280_temperature;BME280_humidity;BME280_pressure;Samples;Min_cycle;Max_cycle;Signal;HPM_P1;HPM_P2
2024/02/21 00:01:08;;;;;;;10.10;5.90;;;;;;;5.36;81.00;99615.77;105281;1260;108081;-88
2024/02/21 00:03:36;;;;;;;13.80;6.80;;;;;;;5.35;80.99;99615.99;105429;1259;97982;-84
2024/02/21 00:06:04;;;;;;;13.90;7.30;;;;;;;5.34;81.04;99618.85;105386;1259;109466;-89
2024/02/21 00:08:32;;;;;;;15.40;8.20;;;;;;;5.33;81.16;99616.80;105550;1260;96591;-88
2024/02/21 00:11:00;;;;;;;15.40;7.80;;;;;;;5.32;81.09;99613.46;105574;1259;96828;-89
2024/02/21 00:13:28;;;;;;;11.60;6.10;;;;;;;5.32;81.17;99615.25;105546;1259;110016;-88
2024/02/21 00:15:56;;;;;;;11.40;5.80;;;;;;;5.32;81.11;99610.67;105325;1260;96530;-89
2024/02/21 00:18:24;;;;;;;13.90;7.20;;;;;;;5.33;81.00;99609.94;105507;1259;107552;-88
2024/02/21 00:20:56;;;;;;;12.00;6.00;;;;;;;5.32;81.12;99608.73;105235;1270;96610;-89
2024/02/21 00:23:24;;;;;;;13.40;7.00;;;;;;;5.31;80.97;99606.67;105298;1260;96596;-85
2024/02/21 00:25:52;;;;;;;10.00;6.40;;;;;;;5.28;80.96;99602.92;105444;1259;109503;-89
2024/02/21 00:28:21;;;;;;;13.20;6.90;;;;;;;5.25;80.99;99606.60;105439;1267;97817;-80
2024/02/21 00:30:50;;;;;;;11.10;5.90;;;;;;;5.20;80.96;99605.02;105275;1260;107214;-88
2024/02/21 00:33:18;;;;;;;10.40;6.30;;;;;;;5.17;80.98;99605.33;107094;1255;97834;-84
2024/02/21 00:35:46;;;;;;;13.50;6.70;;;;;;;5.14;80.87;99604.38;106964;1258;97526;-86
2024/02/21 00:38:13;;;;;;;13.70;7.20;;;;;;;5.12;80.95;99599.72;105221;1259;109947;-88
2024/02/21 00:40:42;;;;;;;11.90;6.40;;;;;;;5.10;81.01;99603.84;105299;1259;96587;-88
2024/02/21 00:43:10;;;;;;;11.50;5.90;;;;;;;5.07;80.85;99599.06;105400;1259;107631;-86
2024/02/21 00:45:38;;;;;;;10.50;6.20;;;;;;;5.07;81.02;99598.54;105370;1260;96692;-89
2024/02/21 00:48:06;;;;;;;13.10;6.80;;;;;;;5.06;80.85;99602.77;105288;1260;97531;-88
2024/02/21 00:50:34;;;;;;;12.10;6.70;;;;;;;5.06;80.91;99603.13;105187;1259;109321;-87
2024/02/21 00:53:02;;;;;;;13.20;6.40;;;;;;;5.06;80.99;99603.30;105527;1258;96594;-83
2024/02/21 00:55:30;;;;;;;11.80;6.70;;;;;;;5.08;80.94;99600.79;105156;1258;107086;-90
2024/02/21 00:57:58;;;;;;;12.80;7.50;;;;;;;5.09;80.99;99605.32;105282;1269;97976;-83
2024/02/21 01:00:25;;;;;;;16.20;7.10;;;;;;;5.10;81.09;99606.68;105569;1257;96714;-89
2024/02/21 01:02:53;;;;;;;12.80;6.90;;;;;;;5.11;81.07;99606.29;105433;1259;109963;-85
2024/02/21 01:05:22;;;;;;;13.90;7.80;;;;;;;5.12;81.07;99607.62;106305;1259;96709;-75
2024/02/21 01:07:52;;;;;;;14.10;7.20;;;;;;;5.14;81.04;99609.83;107770;1257;106287;-88
2024/02/21 01:10:20;;;;;;;10.70;7.00;;;;;;;5.13;80.94;99610.04;105204;1260;96591;-87
2024/02/21 01:12:48;;;;;;;10.30;6.90;;;;;;;5.14;81.24;99610.55;105558;1259;96587;-87
2024/02/21 01:15:16;;;;;;;11.30;7.10;;;;;;;5.15;81.23;99609.45;105574;1259;108841;-88
2024/02/21 01:17:43;;;;;;;13.20;7.70;;;;;;;5.17;81.20;99610.08;105221;1262;97441;-88
2024/02/21 01:20:11;;;;;;;12.80;7.20;;;;;;;5.17;81.18;99606.73;105175;1269;107666;-89
2024/02/21 01:22:39;;;;;;;13.00;7.50;;;;;;;5.16;81.26;99608.69;105102;1260;96596;-88
2024/02/21 01:25:08;;;;;;;12.40;6.80;;;;;;;5.19;81.21;99608.41;105563;1259;96664;-88
2024/02/21 01:27:35;;;;;;;13.50;7.10;;;;;;;5.19;81.30;99601.20;105080;1268;109927;-83
2024/02/21 01:30:05;;;;;;;16.20;7.50;;;;;;;5.19;81.26;99601.88;105153;1257;96693;-88
2024/02/21 01:32:33;;;;;;;13.30;7.90;;;;;;;5.18;81.18;99597.88;105419;1257;106128;-87
2024/02/21 01:35:01;;;;;;;12.50;7.40;;;;;;;5.18;81.39;99599.48;105325;1260;96796;-88
2024/02/21 01:37:30;;;;;;;15.30;7.80;;;;;;;5.17;81.33;99599.35;105367;1257;96529;-88
2024/02/21 01:39:58;;;;;;;19.70;9.10;;;;;;;5.16;81.49;99601.66;105353;1258;108996;-88
2024/02/21 01:42:26;;;;;;;13.30;8.30;;;;;;;5.15;81.52;99601.73;105312;1259;96694;-88
2024/02/21 01:44:53;;;;;;;13.30;7.80;;;;;;;5.14;81.45;99606.83;105677;1259;107701;-81
2024/02/21 01:47:21;;;;;;;10.90;6.70;;;;;;;5.15;81.42;99603.46;105637;1259;96597;-84
2024/02/21 01:49:50;;;;;;;13.20;7.10;;;;;;;5.14;81.48;99602.13;105673;1259;96556;-85
2024/02/21 01:52:18;;;;;;;10.10;6.80;;;;;;;5.13;81.53;99600.90;105506;1259;109630;-88
2024/02/21 01:54:48;;;;;;;11.20;6.30;;;;;;;5.13;81.57;99599.70;105493;1257;97255;-87
2024/02/21 01:57:15;;;;;;;13.80;6.90;;;;;;;5.10;81.40;99598.41;105378;1268;107223;-87
2024/02/21 01:59:43;;;;;;;13.10;6.60;;;;;;;5.08;81.49;99597.27;105272;1257;97791;-88
2024/02/21 02:02:11;;;;;;;10.90;5.80;;;;;;;5.07;81.47;99597.47;105292;1264;96610;-87
2024/02/21 02:04:39;;;;;;;11.40;6.00;;;;;;;5.07;81.45;99596.60;105100;1257;109955;-89
2024/02/21 02:07:08;;;;;;;9.10;5.10;;;;;;;5.05;81.54;99600.54;105162;1260;97598;-88
2024/02/21 02:09:36;;;;;;;13.60;8.10;;;;;;;5.05;81.53;99600.03;105290;1269;107631;-86
2024/02/21 02:12:04;;;;;;;11.80;6.90;;;;;;;5.05;81.58;99598.45;105078;1260;96603;-83
2024/02/21 02:14:32;;;;;;;9.90;5.50;;;;;;;5.04;81.66;99604.98;105291;1259;97899;-86
2024/02/21 02:17:00;;;;;;;9.00;5.40;;;;;;;5.02;81.71;99607.34;105284;1259;109908;-87
2024/02/21 02:19:28;;;;;;;8.10;5.30;;;;;;;5.01;81.62;99603.17;105046;1261;96525;-88
2024/02/21 02:22:05;;;;;;;6.60;4.60;;;;;;;5.00;81.62;99606.90;105126;1254;107704;-88
2024/02/21 02:24:32;;;;;;;8.00;4.40;;;;;;;5.00;81.68;99606.89;105240;1259;96625;-85
2024/02/21 02:27:00;;;;;;;9.90;5.30;;;;;;;4.98;81.66;99609.11;105279;1260;96709;-88
2024/02/21 02:29:28;;;;;;;7.70;5.30;;;;;;;4.95;81.64;99606.39;105388;1259;109523;-82
2024/02/21 02:31:56;;;;;;;10.30;6.00;;;;;;;4.95;81.68;99602.38;105013;1263;97521;-88
2024/02/21 02:34:24;;;;;;;7.90;4.60;;;;;;;4.95;81.69;99606.22;105205;1260;107665;-87
2024/02/21 02:36:52;;;;;;;9.10;4.90;;;;;;;4.94;81.63;99605.55;105151;1260;96591;-88
2024/02/21 02:39:20;;;;;;;10.70;5.40;;;;;;;4.92;81.62;99604.92;105081;1268;96667;-86
2024/02/21 02:41:47;;;;;;;8.80;4.30;;;;;;;4.90;81.61;99605.17;105191;1260;107983;-87
2024/02/21 02:44:16;;;;;;;10.10;4.90;;;;;;;4.90;81.59;99605.88;105292;1265;96689;-87
2024/02/21 02:46:44;;;;;;;10.70;4.90;;;;;;;4.89;81.53;99606.80;105346;1268;107567;-89
2024/02/21 02:49:12;;;;;;;10.00;5.10;;;;;;;4.89;81.68;99608.23;105364;1260;96600;-86
2024/02/21 02:51:43;;;;;;;10.70;6.40;;;;;;;4.86;81.59;99608.88;106387;1260;96559;-78
2024/02/21 02:54:12;;;;;;;10.00;6.30;;;;;;;4.85;81.65;99604.86;106792;1259;109989;-87
2024/02/21 02:56:39;;;;;;;8.30;4.90;;;;;;;4.85;81.63;99605.39;105373;1268;96508;-90
2024/02/21 02:59:08;;;;;;;10.40;5.80;;;;;;;4.85;81.66;99604.70;105518;1260;107610;-88
2024/02/21 03:01:36;;;;;;;7.80;4.70;;;;;;;4.84;81.47;99606.52;105559;1271;96585;-88
2024/02/21 03:04:04;;;;;;;9.70;5.80;;;;;;;4.85;81.54;99608.55;105251;1259;96626;-89
2024/02/21 03:06:31;;;;;;;9.20;6.40;;;;;;;4.85;81.48;99608.55;105636;1267;109669;-87
2024/02/21 03:08:59;;;;;;;11.60;6.40;;;;;;;4.85;81.49;99606.11;105201;1260;96500;-87
2024/02/21 03:11:28;;;;;;;12.80;6.30;;;;;;;4.83;81.56;99606.88;106316;1254;106193;-76
2024/02/21 03:13:58;;;;;;;9.10;5.80;;;;;;;4.82;81.54;99609.20;108069;1258;94210;-85
2024/02/21 03:16:26;;;;;;;7.10;4.70;;;;;;;4.83;81.57;99603.02;105466;1260;96607;-86
2024/02/21 03:18:54;;;;;;;7.50;4.40;;;;;;;4.83;81.42;99608.11;105546;1258;109859;-85
2024/02/21 03:21:22;;;;;;;8.30;4.70;;;;;;;4.82;81.32;99609.39;105385;1269;96610;-88
2024/02/21 03:23:50;;;;;;;8.30;4.40;;;;;;;4.77;81.32;99610.10;105337;1260;107252;-87
2024/02/21 03:26:18;;;;;;;7.60;4.00;;;;;;;4.71;81.27;99610.54;105176;1260;97861;-89
2024/02/21 03:28:46;;;;;;;6.50;4.00;;;;;;;4.65;81.22;99611.83;105422;1268;96606;-88
2024/02/21 03:31:14;;;;;;;8.10;4.10;;;;;;;4.59;81.29;99611.15;105448;1259;109941;-87
2024/02/21 03:33:43;;;;;;;10.10;4.10;;;;;;;4.54;81.17;99616.79;105120;1256;96607;-82
2024/02/21 03:36:15;;;;;;;7.00;3.80;;;;;;;4.48;81.16;99616.50;105465;1254;107431;-88
2024/02/21 03:38:43;;;;;;;6.40;4.10;;;;;;;4.42;81.16;99615.66;105318;1260;97099;-88
2024/02/21 03:41:11;;;;;;;9.70;4.00;;;;;;;4.36;81.09;99612.90;105121;1264;96676;-84
2024/02/21 03:43:40;;;;;;;9.00;3.80;;;;;;;4.29;81.12;99611.42;105114;1264;109899;-88
2024/02/21 03:46:08;;;;;;;5.90;3.70;;;;;;;4.22;81.08;99613.44;105221;1260;97426;-83
2024/02/21 03:48:36;;;;;;;6.60;4.10;;;;;;;4.16;81.12;99610.17;105377;1260;107475;-87
2024/02/21 03:51:04;;;;;;;7.10;4.50;;;;;;;4.10;81.01;99610.89;105565;1260;96656;-85
2024/02/21 03:53:33;;;;;;;7.00;3.80;;;;;;;4.04;81.05;99613.42;105532;1259;97259;-88
2024/02/21 03:56:03;;;;;;;7.90;4.00;;;;;;;3.98;80.90;99614.88;105036;1258;109930;-88
2024/02/21 03:58:32;;;;;;;5.70;3.80;;;;;;;3.93;81.09;99614.88;105090;1269;96607;-88
2024/02/21 04:01:01;;;;;;;7.20;4.30;;;;;;;3.87;80.94;99613.84;105757;1254;105769;-86
2024/02/21 04:03:30;;;;;;;8.70;4.40;;;;;;;3.83;80.93;99618.56;105424;1261;96621;-86
2024/02/21 04:05:58;;;;;;;6.60;4.10;;;;;;;3.80;80.93;99617.97;105534;1260;96646;-88
2024/02/21 04:08:26;;;;;;;8.00;3.70;;;;;;;3.75;80.74;99619.20;105496;1254;109914;-88
2024/02/21 04:10:54;;;;;;;6.20;4.00;;;;;;;3.72;80.84;99621.05;105490;1259;96610;-87
2024/02/21 04:13:22;;;;;;;7.60;4.30;;;;;;;3.70;80.80;99617.80;105434;1260;107586;-80
2024/02/21 04:15:50;;;;;;;8.10;4.40;;;;;;;3.67;81.02;99619.66;105424;1260;97585;-86
2024/02/21 04:18:18;;;;;;;8.90;4.20;;;;;;;3.63;80.84;99616.66;105497;1267;96613;-88
2024/02/21 04:20:46;;;;;;;9.60;4.70;;;;;;;3.60;80.71;99613.95;105485;1258;109937;-84
2024/02/21 04:23:14;;;;;;;11.70;4.60;;;;;;;3.56;80.81;99618.45;105322;1267;96587;-88
2024/02/21 04:25:42;;;;;;;8.30;4.00;;;;;;;3.52;80.72;99616.16;105373;1268;107098;-88
2024/02/21 04:28:10;;;;;;;6.50;3.60;;;;;;;3.48;80.80;99615.73;105171;1260;96610;-89
2024/02/21 04:30:38;;;;;;;11.70;4.60;;;;;;;3.45;80.69;99613.22;105436;1259;96728;-86
2024/02/21 04:33:06;;;;;;;8.50;4.40;;;;;;;3.40;80.90;99613.20;105480;1259;109952;-87
2024/02/21 04:35:36;;;;;;;8.90;4.30;;;;;;;3.37;80.85;99613.14;105493;1260;96601;-88
2024/02/21 04:38:04;;;;;;;9.30;4.50;;;;;;;3.34;81.02;99612.54;105352;1259;106318;-87
2024/02/21 04:40:32;;;;;;;9.70;4.40;;;;;;;3.33;80.73;99606.23;105771;1257;96592;-84
2024/02/21 04:43:00;;;;;;;7.10;4.10;;;;;;;3.34;81.15;99608.17;105124;1255;97556;-87
2024/02/21 04:45:28;;;;;;;8.80;4.00;;;;;;;3.33;80.73;99607.84;105384;1259;111390;-87
2024/02/21 04:47:56;;;;;;;9.10;4.50;;;;;;;3.32;80.86;99603.86;105492;1259;96648;-83
2024/02/21 04:50:24;;;;;;;6.80;3.80;;;;;;;3.29;80.92;99606.22;105340;1268;108686;-87
2024/02/21 04:52:52;;;;;;;7.80;4.20;;;;;;;3.29;80.86;99609.20;105335;1260;96597;-88
2024/02/21 04:55:20;;;;;;;7.50;3.70;;;;;;;3.28;80.55;99604.86;105567;1259;97800;-85
2024/02/21 04:57:48;;;;;;;7.50;3.80;;;;;;;3.26;80.68;99604.94;105161;1254;109456;-87
2024/02/21 05:00:16;;;;;;;9.00;3.90;;;;;;;3.23;80.67;99605.21;105972;1257;96591;-82
2024/02/21 05:02:44;;;;;;;11.50;4.40;;;;;;;3.19;80.84;99604.66;107122;1259;106414;-87
2024/02/21 05:05:12;;;;;;;11.30;4.10;;;;;;;3.17;80.65;99602.27;105530;1263;96686;-78
2024/02/21 05:07:40;;;;;;;9.70;4.80;;;;;;;3.15;80.59;99603.20;105442;1258;96600;-76
2024/02/21 05:10:09;;;;;;;9.00;4.50;;;;;;;3.13;80.54;99603.79;105273;1267;109564;-82
2024/02/21 05:12:37;;;;;;;9.30;4.10;;;;;;;3.11;80.74;99598.59;105453;1255;97244;-89
2024/02/21 05:15:06;;;;;;;6.60;3.90;;;;;;;3.09;80.51;99604.27;105240;1254;108027;-89
2024/02/21 05:17:33;;;;;;;9.00;4.00;;;;;;;3.06;80.54;99605.95;105255;1261;97544;-89
2024/02/21 05:20:02;;;;;;;10.10;5.50;;;;;;;3.03;80.58;99608.15;105353;1261;96600;-90
2024/02/21 05:22:30;;;;;;;21.50;11.90;;;;;;;3.02;80.70;99607.33;105418;1258;109399;-87
2024/02/21 05:24:58;;;;;;;12.30;6.90;;;;;;;3.00;80.54;99609.11;105384;1267;96724;-70
2024/02/21 05:27:26;;;;;;;9.60;5.80;;;;;;;2.99;80.73;99608.27;105292;1267;107051;-70
2024/02/21 05:29:55;;;;;;;8.40;5.60;;;;;;;3.00;80.70;99606.67;105429;1254;97909;-70
2024/02/21 05:32:23;;;;;;;9.40;5.60;;;;;;;3.02;80.61;99605.91;105305;1260;96718;-71
2024/02/21 05:34:51;;;;;;;8.50;5.00;;;;;;;3.04;80.82;99607.58;105416;1260;109983;-70
2024/02/21 05:37:19;;;;;;;9.60;4.80;;;;;;;3.05;80.77;99607.92;105446;1254;99568;-70
2024/02/21 05:39:47;;;;;;;9.30;3.80;;;;;;;3.01;80.51;99606.98;105549;1260;107242;-70
2024/02/21 05:42:15;;;;;;;5.30;3.40;;;;;;;2.96;80.48;99602.42;105365;1261;96711;-70
2024/02/21 05:44:42;;;;;;;10.50;4.50;;;;;;;2.89;80.56;99603.00;105504;1260;96610;-76
2024/02/21 05:47:12;;;;;;;8.30;4.50;;;;;;;2.88;80.53;99600.40;105729;1254;109446;-77
2024/02/21 05:49:40;;;;;;;7.90;4.60;;;;;;;2.89;80.67;99603.34;105522;1254;96715;-78
2024/02/21 05:52:54;;;;;;;12.70;5.90;;;;;;;2.94;80.70;99605.45;105321;1260;107506;-79
2024/02/21 05:55:30;;;;;;;10.50;6.70;;;;;;;2.99;80.66;99611.42;105198;1258;96590;-78
2024/02/21 05:58:12;;;;;;;10.30;5.90;;;;;;;3.05;80.82;99606.84;105385;1259;96619;-76
2024/02/21 06:00:41;;;;;;;14.70;6.10;;;;;;;3.11;80.92;99596.13;105264;1254;110080;-73
2024/02/21 06:03:09;;;;;;;10.80;5.80;;;;;;;3.17;80.99;99590.16;105543;1259;96616;-71
2024/02/21 06:05:38;;;;;;;14.80;6.40;;;;;;;3.24;80.83;99590.61;105484;1255;106859;-70
2024/02/21 06:08:06;;;;;;;8.60;5.00;;;;;;;3.31;80.76;99593.70;108409;1254;94833;-71
2024/02/21 06:10:34;;;;;;;12.00;6.30;;;;;;;3.40;80.87;99597.80;105716;1255;96620;-72
2024/02/21 06:13:02;;;;;;;13.70;6.10;;;;;;;3.46;80.80;99602.68;108342;1254;109436;-69
2024/02/21 06:15:30;;;;;;;14.50;6.60;;;;;;;3.52;80.88;99608.41;108395;1254;95463;-69
2024/02/21 06:17:58;;;;;;;11.10;5.80;;;;;;;3.58;80.78;99611.71;108499;1254;107670;-70
2024/02/21 06:20:26;;;;;;;13.00;5.80;;;;;;;3.63;80.92;99608.41;108523;1254;94496;-69
2024/02/21 06:22:54;;;;;;;11.70;6.00;;;;;;;3.68;80.77;99603.63;108520;1254;94673;-69
2024/02/21 06:25:22;;;;;;;12.30;6.70;;;;;;;3.74;80.79;99604.13;108553;1254;110354;-70
2024/02/21 06:27:50;;;;;;;11.50;5.90;;;;;;;3.81;80.76;99604.25;106372;1260;98137;-71
2024/02/21 06:30:17;;;;;;;15.20;6.90;;;;;;;3.86;80.79;99601.44;105525;1260;107619;-71
2024/02/21 06:32:46;;;;;;;9.20;5.20;;;;;;;3.92;80.96;99602.46;105439;1260;96591;-71
2024/02/21 06:35:14;;;;;;;10.90;4.90;;;;;;;3.95;80.87;99600.77;105127;1277;96651;-71
2024/02/21 06:37:42;;;;;;;9.00;4.60;;;;;;;3.97;80.81;99600.84;105633;1259;110017;-71
2024/02/21 06:40:10;;;;;;;9.80;4.80;;;;;;;3.98;80.91;99598.38;105467;1254;97414;-72
2024/02/21 06:42:38;;;;;;;10.00;5.30;;;;;;;3.97;80.66;99601.02;105473;1259;107707;-71
2024/02/21 06:45:06;;;;;;;10.00;6.00;;;;;;;3.97;80.63;99599.27;105397;1260;96579;-70
2024/02/21 06:47:34;;;;;;;10.60;5.50;;;;;;;3.97;80.75;99602.80;105074;1260;96578;-70
2024/02/21 06:50:02;;;;;;;12.50;6.10;;;;;;;3.98;80.99;99599.40;105245;1254;110605;-70
2024/02/21 06:52:30;;;;;;;11.80;6.20;;;;;;;4.01;81.04;99601.95;105553;1259;97549;-71
2024/02/21 06:54:58;;;;;;;16.30;6.30;;;;;;;4.03;80.92;99600.30;105481;1259;107957;-71
2024/02/21 06:57:29;;;;;;;12.00;6.20;;;;;;;4.05;80.84;99601.64;105225;1254;97890;-70
2024/02/21 06:59:57;;;;;;;13.50;6.60;;;;;;;4.08;80.87;99603.09;105414;1254;96514;-70
2024/02/21 07:02:25;;;;;;;12.40;6.40;;;;;;;4.13;81.12;99602.18;105430;1256;109949;-71
2024/02/21 07:04:53;;;;;;;13.70;5.70;;;;;;;4.19;81.16;99598.29;105188;1254;96689;-71
2024/02/21 07:07:21;;;;;;;15.30;6.00;;;;;;;4.26;80.97;99601.73;105441;1254;107181;-75
2024/02/21 07:09:49;;;;;;;12.10;5.90;;;;;;;4.32;81.18;99600.59;105582;1260;96590;-77
2024/02/21 07:12:22;;;;;;;13.60;6.60;;;;;;;4.39;81.15;99600.16;105336;1254;96764;-74
2024/02/21 07:14:56;;;;;;;11.90;5.30;;;;;;;4.46;81.17;99596.91;105322;1260;109787;-71
2024/02/21 07:17:23;;;;;;;15.30;6.80;;;;;;;4.51;81.34;99592.50;105209;1269;96615;-69
2024/02/21 07:19:51;;;;;;;15.90;7.20;;;;;;;4.59;81.22;99593.97;105325;1254;107661;-70
2024/02/21 07:22:19;;;;;;;15.60;6.90;;;;;;;4.65;81.26;99588.63;105465;1254;97138;-71
2024/02/21 07:24:47;;;;;;;18.80;10.30;;;;;;;4.70;81.18;99584.70;105300;1260;96621;-71
2024/02/21 07:27:15;;;;;;;25.00;14.20;;;;;;;4.75;81.15;99585.93;105318;1257;109124;-71
2024/02/21 07:29:47;;;;;;;26.00;14.70;;;;;;;4.79;81.06;99583.31;105445;1263;96682;-71
2024/02/21 07:32:15;;;;;;;30.90;16.80;;;;;;;4.84;81.13;99580.48;105488;1254;107597;-72
2024/02/21 07:34:43;;;;;;;18.60;8.70;;;;;;;4.89;81.19;99583.45;105265;1260;96600;-70
2024/02/21 07:37:11;;;;;;;18.30;8.70;;;;;;;4.92;81.13;99586.29;105628;1260;96552;-71
2024/02/21 07:39:39;;;;;;;28.20;11.40;;;;;;;4.97;81.24;99583.31;105266;1254;109476;-71
2024/02/21 07:42:07;;;;;;;19.90;8.80;;;;;;;5.02;81.15;99579.20;105435;1260;96593;-70
2024/02/21 07:44:35;;;;;;;20.30;8.60;;;;;;;5.08;81.11;99577.55;105361;1260;107213;-71
2024/02/21 07:47:03;;;;;;;18.50;8.90;;;;;;;5.14;81.18;99576.45;105479;1254;97832;-70
2024/02/21 07:49:32;;;;;;;16.10;8.50;;;;;;;5.18;81.20;99572.94;105295;1259;96581;-71
2024/02/21 07:52:01;;;;;;;14.90;8.00;;;;;;;5.22;81.02;99574.35;105512;1259;110040;-71
2024/02/21 07:54:28;;;;;;;16.30;7.60;;;;;;;5.27;81.08;99575.89;105370;1260;97903;-71
2024/02/21 07:56:56;;;;;;;15.60;6.80;;;;;;;5.31;81.12;99577.63;105437;1260;107166;-71
2024/02/21 07:59:24;;;;;;;13.80;6.60;;;;;;;5.39;81.21;99576.81;105401;1254;97755;-72
2024/02/21 08:01:57;;;;;;;13.90;6.00;;;;;;;5.44;81.15;99574.66;105767;1259;96532;-70
2024/02/21 08:04:25;;;;;;;13.30;5.90;;;;;;;5.46;81.18;99573.13;105490;1259;107997;-70
2024/02/21 08:06:55;;;;;;;13.20;6.30;;;;;;;5.52;81.03;99575.54;105543;1270;96584;-70
2024/02/21 08:09:23;;;;;;;11.60;5.90;;;;;;;5.58;81.00;99574.55;105308;1268;107532;-71
2024/02/21 08:11:51;;;;;;;12.60;5.60;;;;;;;5.67;81.01;99579.80;105513;1254;97554;-71
2024/02/21 08:14:19;;;;;;;12.70;6.30;;;;;;;5.73;80.85;99580.05;105416;1259;96642;-72
2024/02/21 08:16:48;;;;;;;14.00;5.50;;;;;;;5.79;80.85;99577.54;105449;1256;109872;-72
2024/02/21 08:19:16;;;;;;;8.90;4.10;;;;;;;5.87;80.97;99578.73;105423;1260;96591;-71
2024/02/21 08:21:46;;;;;;;12.50;5.80;;;;;;;5.97;80.88;99584.45;105551;1255;107761;-71
2024/02/21 08:24:14;;;;;;;12.20;5.90;;;;;;;6.05;81.03;99579.73;105503;1259;96636;-71
2024/02/21 08:26:44;;;;;;;10.60;5.30;;;;;;;6.08;80.79;99579.92;105293;1260;96527;-70
2024/02/21 08:29:14;;;;;;;12.40;5.90;;;;;;;6.10;80.44;99581.05;105398;1260;110057;-71
2024/02/21 08:31:42;;;;;;;12.00;4.90;;;;;;;6.10;80.62;99578.63;105303;1259;97506;-70
2024/02/21 08:34:10;;;;;;;13.00;5.00;;;;;;;6.11;80.54;99575.21;105505;1270;107578;-70
2024/02/21 08:36:38;;;;;;;12.00;5.00;;;;;;;6.10;80.46;99574.73;105245;1260;97924;-69
2024/02/21 08:39:07;;;;;;;9.90;4.90;;;;;;;6.11;80.62;99574.85;105324;1259;96598;-69
2024/02/21 08:41:35;;;;;;;10.80;4.60;;;;;;;6.14;80.71;99567.17;105182;1255;109761;-70
2024/02/21 08:44:27;;;;;;;11.50;5.10;;;;;;;6.14;80.29;99563.64;105413;1255;96587;-70
2024/02/21 08:46:56;;;;;;;10.30;5.70;;;;;;;6.12;80.21;99566.00;105537;1260;107613;-70
2024/02/21 08:49:28;;;;;;;14.10;6.20;;;;;;;6.12;80.24;99567.25;105764;1257;97894;-72
2024/02/21 08:52:02;;;;;;;17.00;7.30;;;;;;;6.14;80.22;99569.30;105299;1256;96613;-70
2024/02/21 08:54:35;;;;;;;17.10;6.20;;;;;;;6.14;80.08;99568.92;105204;1259;111083;-69
2024/02/21 08:57:03;;;;;;;16.10;6.30;;;;;;;6.14;80.09;99569.09;105507;1254;96603;-70
2024/02/21 08:59:31;;;;;;;12.00;6.10;;;;;;;6.19;80.06;99567.14;105336;1260;107592;-71
2024/02/21 09:01:59;;;;;;;13.90;5.50;;;;;;;6.26;80.16;99564.84;105655;1258;96619;-70
2024/02/21 09:04:27;;;;;;;13.40;6.00;;;;;;;6.31;79.80;99561.30;105315;1255;96660;-70
2024/02/21 09:06:55;;;;;;;15.40;5.20;;;;;;;6.34;79.79;99558.12;105421;1259;109654;-69
2024/02/21 09:09:23;;;;;;;14.70;5.90;;;;;;;6.40;79.78;99550.30;105153;1254;97899;-70
2024/02/21 09:11:55;;;;;;;9.90;5.80;;;;;;;6.46;79.68;99547.89;105291;1256;106385;-69
2024/02/21 09:14:23;;;;;;;12.20;5.70;;;;;;;6.50;79.62;99545.93;105358;1259;96574;-71
2024/02/21 09:16:51;;;;;;;13.50;5.20;;;;;;;6.51;79.77;99544.29;105206;1258;96600;-71
2024/02/21 09:19:18;;;;;;;12.70;5.00;;;;;;;6.51;79.52;99543.77;105342;1260;109452;-70
2024/02/21 09:21:46;;;;;;;7.90;3.70;;;;;;;6.52;79.44;99541.59;105335;1259;96629;-71
2024/02/21 09:24:14;;;;;;;7.90;4.00;;;;;;;6.58;79.90;99536.41;105073;1260;109103;-70
2024/02/21 09:26:42;;;;;;;9.50;4.30;;;;;;;6.63;79.61;99535.64;105320;1266;96615;-70
2024/02/21 09:29:10;;;;;;;12.10;4.30;;;;;;;6.65;79.35;99533.75;105635;1254;96660;-70
2024/02/21 09:31:38;;;;;;;10.60;4.80;;;;;;;6.69;79.58;99536.36;105393;1254;109926;-70
2024/02/21 09:34:06;;;;;;;8.20;3.70;;;;;;;6.72;79.47;99539.25;105337;1255;96590;-71
2024/02/21 09:36:34;;;;;;;7.30;4.20;;;;;;;6.76;79.35;99540.25;105370;1259;107469;-70
2024/02/21 09:39:02;;;;;;;7.20;3.90;;;;;;;6.82;79.46;99541.40;105015;1259;96934;-71
2024/02/21 09:41:30;;;;;;;9.30;4.20;;;;;;;6.88;79.34;99539.17;105406;1259;96623;-70
2024/02/21 09:43:59;;;;;;;8.40;3.80;;;;;;;6.94;79.56;99539.73;105306;1259;110939;-70
2024/02/21 09:46:44;;;;;;;8.20;3.50;;;;;;;7.07;79.47;99535.92;105559;1260;97901;-70
2024/02/21 09:49:24;;;;;;;12.90;3.00;;;;;;;7.17;79.45;99533.81;105238;1260;108082;-69
2024/02/21 09:51:55;;;;;;;8.30;3.40;;;;;;;7.26;79.47;99530.38;105367;1254;97500;-69
2024/02/21 09:54:23;;;;;;;7.10;4.00;;;;;;;7.32;79.25;99531.84;105404;1256;96677;-70
2024/02/21 09:56:51;;;;;;;6.70;3.50;;;;;;;7.38;79.26;99534.71;105446;1254;109942;-73
2024/02/21 09:59:20;;;;;;;6.80;3.70;;;;;;;7.43;79.20;99535.48;105560;1259;96511;-69
2024/02/21 10:01:48;;;;;;;7.60;3.80;;;;;;;7.50;79.27;99532.52;108455;1254;107693;-71
2024/02/21 10:04:16;;;;;;;5.50;3.20;;;;;;;7.60;79.34;99531.61;108534;1254;94476;-70
2024/02/21 10:06:44;;;;;;;6.90;3.00;;;;;;;7.73;79.42;99531.81;108563;1254;94291;-72
2024/02/21 10:09:29;;;;;;;7.40;3.20;;;;;;;7.80;79.20;99530.00;108503;1256;109668;-72
2024/02/21 10:12:11;;;;;;;6.10;3.40;;;;;;;7.88;78.96;99526.91;105999;1268;96584;-69
2024/02/21 10:14:40;;;;;;;7.70;3.60;;;;;;;7.90;78.89;99524.00;105738;1257;107779;-70
2024/02/21 10:17:14;;;;;;;7.80;4.40;;;;;;;7.90;78.95;99523.48;105991;1254;96535;-70
2024/02/21 10:19:42;;;;;;;8.30;4.50;;;;;;;7.89;78.72;99518.41;105377;1260;96584;-70
2024/02/21 10:22:10;;;;;;;10.60;5.40;;;;;;;7.89;78.81;99517.70;105415;1258;110046;-71
2024/02/21 10:24:40;;;;;;;9.70;3.70;;;;;;;7.90;78.73;99511.11;105165;1267;96588;-71
2024/02/21 10:27:13;;;;;;;7.90;4.10;;;;;;;7.94;78.74;99508.82;105471;1260;107615;-71
2024/02/21 10:29:41;;;;;;;7.70;3.70;;;;;;;7.97;78.79;99501.75;105318;1259;97525;-70
2024/02/21 10:32:12;;;;;;;6.70;3.00;;;;;;;8.00;78.70;99504.23;105481;1259;97902;-70
2024/02/21 10:34:42;;;;;;;10.80;3.20;;;;;;;8.03;78.89;99503.70;106461;1258;109964;-71
2024/02/21 10:37:12;;;;;;;8.10;3.60;;;;;;;8.06;78.70;99500.70;105324;1256;96518;-71
2024/02/21 10:39:42;;;;;;;6.80;2.90;;;;;;;8.10;78.64;99496.25;105238;1271;106765;-70
2024/02/21 10:42:11;;;;;;;9.00;3.50;;;;;;;8.11;78.68;99497.60;105303;1259;96613;-71
2024/02/21 10:44:41;;;;;;;7.20;3.50;;;;;;;8.11;78.47;99497.64;104911;1262;96538;-69
2024/02/21 10:47:12;;;;;;;9.90;4.40;;;;;;;8.10;78.44;99494.34;105318;1258;109426;-71
2024/02/21 10:49:44;;;;;;;8.20;3.50;;;;;;;8.11;78.38;99492.52;105271;1258;96662;-71
2024/02/21 10:52:39;;;;;;;8.00;3.50;;;;;;;8.09;78.30;99490.83;105246;1260;106794;-70
2024/02/21 10:55:15;;;;;;;9.40;3.60;;;;;;;8.08;78.38;99486.13;105393;1255;96600;-70
2024/02/21 10:57:44;;;;;;;6.70;3.10;;;;;;;8.09;78.24;99488.52;105274;1256;96515;-72
2024/02/21 11:03:49;;;;;;;6.90;3.20;;;;;;;8.14;78.28;99479.25;102988;1286;638135;-71
2024/02/21 11:06:18;;;;;;;6.90;3.00;;;;;;;8.14;78.23;99472.71;104853;1267;94306;-69
2024/02/21 11:08:47;;;;;;;10.80;3.30;;;;;;;8.18;78.24;99470.88;104843;1270;94509;-70
2024/02/21 11:11:19;;;;;;;5.40;2.90;;;;;;;8.23;78.37;99461.43;104740;1272;104985;-71
2024/02/21 11:14:11;;;;;;;6.10;3.40;;;;;;;8.30;78.24;99458.41;104970;1266;95581;-71
2024/02/21 11:16:42;;;;;;;7.90;2.90;;;;;;;8.35;78.22;99451.58;101987;1276;4112237;-69
2024/02/21 11:19:20;;;;;;;7.00;3.50;;;;;;;8.38;78.21;99448.24;104884;1263;94367;-70
2024/02/21 11:21:48;;;;;;;7.30;3.30;;;;;;;8.40;78.05;99445.46;105050;1260;107226;-70
2024/02/21 11:24:28;;;;;;;6.20;3.30;;;;;;;8.42;77.90;99443.91;105323;1263;95195;-71
2024/02/21 11:27:09;;;;;;;6.00;4.00;;;;;;;8.44;77.92;99439.23;105078;1270;107309;-71
2024/02/21 11:29:57;;;;;;;6.30;3.10;;;;;;;8.44;77.85;99436.59;104845;1263;95387;-72
2024/02/21 11:32:29;;;;;;;5.70;3.20;;;;;;;8.42;77.83;99427.34;105077;1258;95263;-74
2024/02/21 11:35:03;;;;;;;5.60;3.10;;;;;;;8.39;77.77;99425.20;105055;1261;108583;-71
2024/02/21 11:37:38;;;;;;;7.10;3.20;;;;;;;8.37;77.74;99427.42;105072;1259;96666;-71
2024/02/21 11:40:09;;;;;;;;;;;;;;;8.35;77.75;99422.23;105190;1258;107066;-70